<?xml version="1.0" encoding="UTF-8" standalone="no" ?>
<gpx xmlns="http://www.topografix.com/GPX/1/1" xmlns:xsi="http://www.w3.org/2001/XMLSchema-instance" xsi:schemaLocation="http://www.topografix.com/GPX/1/1 http://www.topografix.com/GPX/1/1/gpx.xsd" version="1.1" creator="VisuGPX - https://www.visugpx.com">
  <metadata>
    <name>boucles beaumont</name>
    <desc><![CDATA[boucles beaumont du périgord]]></desc>
  </metadata>
  <trk>
    <name><![CDATA[BBmt36]]></name>
    <trkseg>
      <trkpt lat="44.77045" lon="0.8264">
        <ele>126</ele>
        <time>2009-01-13T14:42:13Z</time>
      </trkpt>
      <trkpt lat="44.7706" lon="0.82655">
        <ele>113</ele>
        <time>2009-01-13T14:42:43Z</time>
      </trkpt>
      <trkpt lat="44.77073" lon="0.82678">
        <ele>114</ele>
        <time>2009-01-13T14:42:51Z</time>
      </trkpt>
      <trkpt lat="44.77085" lon="0.827">
        <ele>111</ele>
        <time>2009-01-13T14:42:58Z</time>
      </trkpt>
      <trkpt lat="44.77095" lon="0.82725">
        <ele>114</ele>
        <time>2009-01-13T14:43:04Z</time>
      </trkpt>
      <trkpt lat="44.77108" lon="0.82745">
        <ele>118</ele>
        <time>2009-01-13T14:43:09Z</time>
      </trkpt>
      <trkpt lat="44.7712" lon="0.82765">
        <ele>116</ele>
        <time>2009-01-13T14:43:18Z</time>
      </trkpt>
      <trkpt lat="44.7713" lon="0.82788">
        <ele>112</ele>
        <time>2009-01-13T14:43:25Z</time>
      </trkpt>
      <trkpt lat="44.77143" lon="0.82808">
        <ele>117</ele>
        <time>2009-01-13T14:43:31Z</time>
      </trkpt>
      <trkpt lat="44.77155" lon="0.82828">
        <ele>119</ele>
        <time>2009-01-13T14:43:36Z</time>
      </trkpt>
      <trkpt lat="44.77173" lon="0.82843">
        <ele>113</ele>
        <time>2009-01-13T14:43:41Z</time>
      </trkpt>
      <trkpt lat="44.7719" lon="0.82855">
        <ele>109</ele>
        <time>2009-01-13T14:43:46Z</time>
      </trkpt>
      <trkpt lat="44.77208" lon="0.82868">
        <ele>108</ele>
        <time>2009-01-13T14:43:51Z</time>
      </trkpt>
      <trkpt lat="44.77225" lon="0.82875">
        <ele>109</ele>
        <time>2009-01-13T14:43:57Z</time>
      </trkpt>
      <trkpt lat="44.7724" lon="0.82895">
        <ele>109</ele>
        <time>2009-01-13T14:44:19Z</time>
      </trkpt>
      <trkpt lat="44.77248" lon="0.8292">
        <ele>108</ele>
        <time>2009-01-13T14:44:24Z</time>
      </trkpt>
      <trkpt lat="44.77258" lon="0.82945">
        <ele>109</ele>
        <time>2009-01-13T14:44:29Z</time>
      </trkpt>
      <trkpt lat="44.77273" lon="0.82965">
        <ele>108</ele>
        <time>2009-01-13T14:44:34Z</time>
      </trkpt>
      <trkpt lat="44.77288" lon="0.82983">
        <ele>108</ele>
        <time>2009-01-13T14:44:39Z</time>
      </trkpt>
      <trkpt lat="44.77303" lon="0.82998">
        <ele>107</ele>
        <time>2009-01-13T14:44:43Z</time>
      </trkpt>
      <trkpt lat="44.77318" lon="0.83013">
        <ele>110</ele>
        <time>2009-01-13T14:44:47Z</time>
      </trkpt>
      <trkpt lat="44.77338" lon="0.83023">
        <ele>110</ele>
        <time>2009-01-13T14:44:52Z</time>
      </trkpt>
      <trkpt lat="44.77358" lon="0.83033">
        <ele>110</ele>
        <time>2009-01-13T14:44:56Z</time>
      </trkpt>
      <trkpt lat="44.77375" lon="0.8304">
        <ele>109</ele>
        <time>2009-01-13T14:45:06Z</time>
      </trkpt>
      <trkpt lat="44.7739" lon="0.83055">
        <ele>111</ele>
        <time>2009-01-13T14:45:10Z</time>
      </trkpt>
      <trkpt lat="44.774" lon="0.83078">
        <ele>110</ele>
        <time>2009-01-13T14:45:26Z</time>
      </trkpt>
      <trkpt lat="44.77405" lon="0.83108">
        <ele>111</ele>
        <time>2009-01-13T14:45:30Z</time>
      </trkpt>
      <trkpt lat="44.77408" lon="0.8314">
        <ele>109</ele>
        <time>2009-01-13T14:45:34Z</time>
      </trkpt>
      <trkpt lat="44.77413" lon="0.83168">
        <ele>107</ele>
        <time>2009-01-13T14:45:39Z</time>
      </trkpt>
      <trkpt lat="44.77428" lon="0.8319">
        <ele>108</ele>
        <time>2009-01-13T14:45:56Z</time>
      </trkpt>
      <trkpt lat="44.7744" lon="0.8321">
        <ele>109</ele>
        <time>2009-01-13T14:46:04Z</time>
      </trkpt>
      <trkpt lat="44.77455" lon="0.83225">
        <ele>118</ele>
        <time>2009-01-13T14:46:52Z</time>
      </trkpt>
      <trkpt lat="44.77468" lon="0.83245">
        <ele>112</ele>
        <time>2009-01-13T14:47:16Z</time>
      </trkpt>
      <trkpt lat="44.77478" lon="0.83268">
        <ele>109</ele>
        <time>2009-01-13T14:47:41Z</time>
      </trkpt>
      <trkpt lat="44.77485" lon="0.83293">
        <ele>112</ele>
        <time>2009-01-13T14:48:00Z</time>
      </trkpt>
      <trkpt lat="44.77715" lon="0.83908">
        <ele>148</ele>
        <time>2009-01-13T14:59:01Z</time>
      </trkpt>
      <trkpt lat="44.77738" lon="0.8391">
        <ele>139</ele>
        <time>2009-01-13T14:59:43Z</time>
      </trkpt>
      <trkpt lat="44.77758" lon="0.83915">
        <ele>140</ele>
        <time>2009-01-13T14:59:50Z</time>
      </trkpt>
      <trkpt lat="44.77775" lon="0.83923">
        <ele>142</ele>
        <time>2009-01-13T14:59:57Z</time>
      </trkpt>
      <trkpt lat="44.77793" lon="0.8393">
        <ele>143</ele>
        <time>2009-01-13T15:00:05Z</time>
      </trkpt>
      <trkpt lat="44.77788" lon="0.83905">
        <ele>145</ele>
        <time>2009-01-13T15:00:25Z</time>
      </trkpt>
      <trkpt lat="44.77778" lon="0.83883">
        <ele>144</ele>
        <time>2009-01-13T15:00:29Z</time>
      </trkpt>
      <trkpt lat="44.77765" lon="0.83863">
        <ele>142</ele>
        <time>2009-01-13T15:00:33Z</time>
      </trkpt>
      <trkpt lat="44.7775" lon="0.83843">
        <ele>136</ele>
        <time>2009-01-13T15:00:38Z</time>
      </trkpt>
      <trkpt lat="44.77738" lon="0.83823">
        <ele>138</ele>
        <time>2009-01-13T15:00:46Z</time>
      </trkpt>
      <trkpt lat="44.77758" lon="0.83818">
        <ele>130</ele>
        <time>2009-01-13T15:00:59Z</time>
      </trkpt>
      <trkpt lat="44.77778" lon="0.83818">
        <ele>131</ele>
        <time>2009-01-13T15:01:06Z</time>
      </trkpt>
      <trkpt lat="44.77798" lon="0.83818">
        <ele>129</ele>
        <time>2009-01-13T15:01:11Z</time>
      </trkpt>
      <trkpt lat="44.77818" lon="0.83818">
        <ele>124</ele>
        <time>2009-01-13T15:01:16Z</time>
      </trkpt>
      <trkpt lat="44.77838" lon="0.83813">
        <ele>121</ele>
        <time>2009-01-13T15:01:23Z</time>
      </trkpt>
      <trkpt lat="44.77845" lon="0.83788">
        <ele>117</ele>
        <time>2009-01-13T15:01:28Z</time>
      </trkpt>
      <trkpt lat="44.77858" lon="0.83763">
        <ele>115</ele>
        <time>2009-01-13T15:01:33Z</time>
      </trkpt>
      <trkpt lat="44.77878" lon="0.83763">
        <ele>125</ele>
        <time>2009-01-13T15:01:44Z</time>
      </trkpt>
      <trkpt lat="44.77898" lon="0.8377">
        <ele>124</ele>
        <time>2009-01-13T15:01:48Z</time>
      </trkpt>
      <trkpt lat="44.7792" lon="0.83785">
        <ele>125</ele>
        <time>2009-01-13T15:01:52Z</time>
      </trkpt>
      <trkpt lat="44.7794" lon="0.83803">
        <ele>125</ele>
        <time>2009-01-13T15:01:56Z</time>
      </trkpt>
      <trkpt lat="44.77955" lon="0.83818">
        <ele>124</ele>
        <time>2009-01-13T15:01:59Z</time>
      </trkpt>
      <trkpt lat="44.77968" lon="0.83838">
        <ele>122</ele>
        <time>2009-01-13T15:02:02Z</time>
      </trkpt>
      <trkpt lat="44.77985" lon="0.8386">
        <ele>119</ele>
        <time>2009-01-13T15:02:05Z</time>
      </trkpt>
      <trkpt lat="44.77998" lon="0.83885">
        <ele>120</ele>
        <time>2009-01-13T15:02:08Z</time>
      </trkpt>
      <trkpt lat="44.7801" lon="0.83915">
        <ele>120</ele>
        <time>2009-01-13T15:02:12Z</time>
      </trkpt>
      <trkpt lat="44.78023" lon="0.8394">
        <ele>120</ele>
        <time>2009-01-13T15:02:15Z</time>
      </trkpt>
      <trkpt lat="44.7804" lon="0.83965">
        <ele>120</ele>
        <time>2009-01-13T15:02:18Z</time>
      </trkpt>
      <trkpt lat="44.7805" lon="0.8399">
        <ele>123</ele>
        <time>2009-01-13T15:02:21Z</time>
      </trkpt>
      <trkpt lat="44.78063" lon="0.84018">
        <ele>124</ele>
        <time>2009-01-13T15:02:24Z</time>
      </trkpt>
      <trkpt lat="44.78075" lon="0.84053">
        <ele>126</ele>
        <time>2009-01-13T15:02:27Z</time>
      </trkpt>
      <trkpt lat="44.78085" lon="0.84083">
        <ele>128</ele>
        <time>2009-01-13T15:02:30Z</time>
      </trkpt>
      <trkpt lat="44.78095" lon="0.84113">
        <ele>127</ele>
        <time>2009-01-13T15:02:33Z</time>
      </trkpt>
      <trkpt lat="44.78105" lon="0.84143">
        <ele>128</ele>
        <time>2009-01-13T15:02:36Z</time>
      </trkpt>
      <trkpt lat="44.78115" lon="0.8417">
        <ele>130</ele>
        <time>2009-01-13T15:02:39Z</time>
      </trkpt>
      <trkpt lat="44.7813" lon="0.84198">
        <ele>133</ele>
        <time>2009-01-13T15:02:42Z</time>
      </trkpt>
      <trkpt lat="44.78145" lon="0.84215">
        <ele>135</ele>
        <time>2009-01-13T15:02:45Z</time>
      </trkpt>
      <trkpt lat="44.78163" lon="0.8423">
        <ele>136</ele>
        <time>2009-01-13T15:02:48Z</time>
      </trkpt>
      <trkpt lat="44.78178" lon="0.84245">
        <ele>137</ele>
        <time>2009-01-13T15:02:51Z</time>
      </trkpt>
      <trkpt lat="44.7819" lon="0.8427">
        <ele>135</ele>
        <time>2009-01-13T15:02:55Z</time>
      </trkpt>
      <trkpt lat="44.78198" lon="0.84295">
        <ele>133</ele>
        <time>2009-01-13T15:03:10Z</time>
      </trkpt>
      <trkpt lat="44.78205" lon="0.8432">
        <ele>130</ele>
        <time>2009-01-13T15:03:17Z</time>
      </trkpt>
      <trkpt lat="44.78223" lon="0.84308">
        <ele>131</ele>
        <time>2009-01-13T15:03:24Z</time>
      </trkpt>
      <trkpt lat="44.7824" lon="0.84293">
        <ele>132</ele>
        <time>2009-01-13T15:03:29Z</time>
      </trkpt>
      <trkpt lat="44.78255" lon="0.84275">
        <ele>133</ele>
        <time>2009-01-13T15:03:33Z</time>
      </trkpt>
      <trkpt lat="44.78273" lon="0.84253">
        <ele>134</ele>
        <time>2009-01-13T15:03:37Z</time>
      </trkpt>
      <trkpt lat="44.7829" lon="0.84235">
        <ele>136</ele>
        <time>2009-01-13T15:03:40Z</time>
      </trkpt>
      <trkpt lat="44.78308" lon="0.84215">
        <ele>137</ele>
        <time>2009-01-13T15:03:43Z</time>
      </trkpt>
      <trkpt lat="44.78325" lon="0.84195">
        <ele>138</ele>
        <time>2009-01-13T15:03:46Z</time>
      </trkpt>
      <trkpt lat="44.78343" lon="0.84173">
        <ele>141</ele>
        <time>2009-01-13T15:03:49Z</time>
      </trkpt>
      <trkpt lat="44.78363" lon="0.84158">
        <ele>144</ele>
        <time>2009-01-13T15:03:52Z</time>
      </trkpt>
      <trkpt lat="44.78385" lon="0.8415">
        <ele>147</ele>
        <time>2009-01-13T15:03:55Z</time>
      </trkpt>
      <trkpt lat="44.78408" lon="0.84148">
        <ele>148</ele>
        <time>2009-01-13T15:03:58Z</time>
      </trkpt>
      <trkpt lat="44.78435" lon="0.84153">
        <ele>149</ele>
        <time>2009-01-13T15:04:01Z</time>
      </trkpt>
      <trkpt lat="44.78455" lon="0.84158">
        <ele>150</ele>
        <time>2009-01-13T15:04:03Z</time>
      </trkpt>
      <trkpt lat="44.78483" lon="0.84165">
        <ele>154</ele>
        <time>2009-01-13T15:04:06Z</time>
      </trkpt>
      <trkpt lat="44.7851" lon="0.84175">
        <ele>155</ele>
        <time>2009-01-13T15:04:09Z</time>
      </trkpt>
      <trkpt lat="44.78538" lon="0.8418">
        <ele>158</ele>
        <time>2009-01-13T15:04:12Z</time>
      </trkpt>
      <trkpt lat="44.78558" lon="0.84185">
        <ele>160</ele>
        <time>2009-01-13T15:04:15Z</time>
      </trkpt>
      <trkpt lat="44.78575" lon="0.84175">
        <ele>164</ele>
        <time>2009-01-13T15:04:25Z</time>
      </trkpt>
      <trkpt lat="44.78595" lon="0.84168">
        <ele>168</ele>
        <time>2009-01-13T15:04:29Z</time>
      </trkpt>
      <trkpt lat="44.78615" lon="0.8416">
        <ele>177</ele>
        <time>2009-01-13T15:04:32Z</time>
      </trkpt>
      <trkpt lat="44.78635" lon="0.84153">
        <ele>190</ele>
        <time>2009-01-13T15:04:36Z</time>
      </trkpt>
      <trkpt lat="44.78658" lon="0.8415">
        <ele>194</ele>
        <time>2009-01-13T15:04:39Z</time>
      </trkpt>
      <trkpt lat="44.78675" lon="0.84158">
        <ele>201</ele>
        <time>2009-01-13T15:04:41Z</time>
      </trkpt>
      <trkpt lat="44.787" lon="0.84165">
        <ele>205</ele>
        <time>2009-01-13T15:04:44Z</time>
      </trkpt>
      <trkpt lat="44.78723" lon="0.84175">
        <ele>211</ele>
        <time>2009-01-13T15:04:47Z</time>
      </trkpt>
      <trkpt lat="44.78748" lon="0.84183">
        <ele>215</ele>
        <time>2009-01-13T15:04:50Z</time>
      </trkpt>
      <trkpt lat="44.78765" lon="0.8419">
        <ele>213</ele>
        <time>2009-01-13T15:04:52Z</time>
      </trkpt>
      <trkpt lat="44.78788" lon="0.84203">
        <ele>212</ele>
        <time>2009-01-13T15:04:55Z</time>
      </trkpt>
      <trkpt lat="44.78805" lon="0.84213">
        <ele>195</ele>
        <time>2009-01-13T15:05:05Z</time>
      </trkpt>
      <trkpt lat="44.788" lon="0.84243">
        <ele>189</ele>
        <time>2009-01-13T15:05:10Z</time>
      </trkpt>
      <trkpt lat="44.7879" lon="0.84268">
        <ele>187</ele>
        <time>2009-01-13T15:05:13Z</time>
      </trkpt>
      <trkpt lat="44.7878" lon="0.8429">
        <ele>187</ele>
        <time>2009-01-13T15:05:16Z</time>
      </trkpt>
      <trkpt lat="44.7877" lon="0.84313">
        <ele>186</ele>
        <time>2009-01-13T15:05:19Z</time>
      </trkpt>
      <trkpt lat="44.78758" lon="0.84338">
        <ele>183</ele>
        <time>2009-01-13T15:05:22Z</time>
      </trkpt>
      <trkpt lat="44.78755" lon="0.8437">
        <ele>179</ele>
        <time>2009-01-13T15:05:25Z</time>
      </trkpt>
      <trkpt lat="44.78755" lon="0.844">
        <ele>178</ele>
        <time>2009-01-13T15:05:28Z</time>
      </trkpt>
      <trkpt lat="44.78758" lon="0.8443">
        <ele>179</ele>
        <time>2009-01-13T15:05:31Z</time>
      </trkpt>
      <trkpt lat="44.7876" lon="0.84458">
        <ele>181</ele>
        <time>2009-01-13T15:05:35Z</time>
      </trkpt>
      <trkpt lat="44.78763" lon="0.84488">
        <ele>176</ele>
        <time>2009-01-13T15:05:45Z</time>
      </trkpt>
      <trkpt lat="44.78765" lon="0.84518">
        <ele>180</ele>
        <time>2009-01-13T15:05:48Z</time>
      </trkpt>
      <trkpt lat="44.78768" lon="0.8455">
        <ele>182</ele>
        <time>2009-01-13T15:05:51Z</time>
      </trkpt>
      <trkpt lat="44.78773" lon="0.8458">
        <ele>181</ele>
        <time>2009-01-13T15:05:54Z</time>
      </trkpt>
      <trkpt lat="44.78778" lon="0.8461">
        <ele>183</ele>
        <time>2009-01-13T15:05:57Z</time>
      </trkpt>
      <trkpt lat="44.7878" lon="0.84638">
        <ele>184</ele>
        <time>2009-01-13T15:06:00Z</time>
      </trkpt>
      <trkpt lat="44.78785" lon="0.84665">
        <ele>186</ele>
        <time>2009-01-13T15:06:04Z</time>
      </trkpt>
      <trkpt lat="44.78795" lon="0.8469">
        <ele>188</ele>
        <time>2009-01-13T15:06:11Z</time>
      </trkpt>
      <trkpt lat="44.78805" lon="0.84715">
        <ele>188</ele>
        <time>2009-01-13T15:06:14Z</time>
      </trkpt>
      <trkpt lat="44.7882" lon="0.84753">
        <ele>190</ele>
        <time>2009-01-13T15:06:17Z</time>
      </trkpt>
      <trkpt lat="44.7883" lon="0.8478">
        <ele>188</ele>
        <time>2009-01-13T15:06:19Z</time>
      </trkpt>
      <trkpt lat="44.7884" lon="0.84818">
        <ele>188</ele>
        <time>2009-01-13T15:06:22Z</time>
      </trkpt>
      <trkpt lat="44.78848" lon="0.84843">
        <ele>187</ele>
        <time>2009-01-13T15:06:24Z</time>
      </trkpt>
      <trkpt lat="44.78858" lon="0.84878">
        <ele>187</ele>
        <time>2009-01-13T15:06:27Z</time>
      </trkpt>
      <trkpt lat="44.78868" lon="0.84913">
        <ele>187</ele>
        <time>2009-01-13T15:06:30Z</time>
      </trkpt>
      <trkpt lat="44.78878" lon="0.84948">
        <ele>187</ele>
        <time>2009-01-13T15:06:33Z</time>
      </trkpt>
      <trkpt lat="44.78885" lon="0.84973">
        <ele>187</ele>
        <time>2009-01-13T15:06:35Z</time>
      </trkpt>
      <trkpt lat="44.78893" lon="0.85">
        <ele>187</ele>
        <time>2009-01-13T15:06:37Z</time>
      </trkpt>
      <trkpt lat="44.78905" lon="0.8504">
        <ele>187</ele>
        <time>2009-01-13T15:06:40Z</time>
      </trkpt>
      <trkpt lat="44.78913" lon="0.85068">
        <ele>188</ele>
        <time>2009-01-13T15:06:42Z</time>
      </trkpt>
      <trkpt lat="44.78923" lon="0.85098">
        <ele>188</ele>
        <time>2009-01-13T15:06:45Z</time>
      </trkpt>
      <trkpt lat="44.78925" lon="0.85125">
        <ele>186</ele>
        <time>2009-01-13T15:06:58Z</time>
      </trkpt>
      <trkpt lat="44.78933" lon="0.85155">
        <ele>186</ele>
        <time>2009-01-13T15:07:02Z</time>
      </trkpt>
      <trkpt lat="44.78943" lon="0.85185">
        <ele>186</ele>
        <time>2009-01-13T15:07:06Z</time>
      </trkpt>
      <trkpt lat="44.78953" lon="0.85213">
        <ele>186</ele>
        <time>2009-01-13T15:07:09Z</time>
      </trkpt>
      <trkpt lat="44.7896" lon="0.85238">
        <ele>186</ele>
        <time>2009-01-13T15:07:12Z</time>
      </trkpt>
      <trkpt lat="44.7897" lon="0.85263">
        <ele>186</ele>
        <time>2009-01-13T15:07:15Z</time>
      </trkpt>
      <trkpt lat="44.7898" lon="0.85285">
        <ele>186</ele>
        <time>2009-01-13T15:07:18Z</time>
      </trkpt>
      <trkpt lat="44.78983" lon="0.85315">
        <ele>185</ele>
        <time>2009-01-13T15:07:23Z</time>
      </trkpt>
      <trkpt lat="44.78993" lon="0.8534">
        <ele>187</ele>
        <time>2009-01-13T15:07:31Z</time>
      </trkpt>
      <trkpt lat="44.79008" lon="0.85363">
        <ele>191</ele>
        <time>2009-01-13T15:07:35Z</time>
      </trkpt>
      <trkpt lat="44.79025" lon="0.8538">
        <ele>192</ele>
        <time>2009-01-13T15:07:39Z</time>
      </trkpt>
      <trkpt lat="44.79043" lon="0.85395">
        <ele>189</ele>
        <time>2009-01-13T15:07:51Z</time>
      </trkpt>
      <trkpt lat="44.79058" lon="0.85415">
        <ele>192</ele>
        <time>2009-01-13T15:07:55Z</time>
      </trkpt>
      <trkpt lat="44.7907" lon="0.85438">
        <ele>194</ele>
        <time>2009-01-13T15:07:58Z</time>
      </trkpt>
      <trkpt lat="44.79083" lon="0.8546">
        <ele>197</ele>
        <time>2009-01-13T15:08:03Z</time>
      </trkpt>
      <trkpt lat="44.79093" lon="0.85483">
        <ele>197</ele>
        <time>2009-01-13T15:08:11Z</time>
      </trkpt>
      <trkpt lat="44.79105" lon="0.85503">
        <ele>197</ele>
        <time>2009-01-13T15:08:14Z</time>
      </trkpt>
      <trkpt lat="44.79115" lon="0.85525">
        <ele>195</ele>
        <time>2009-01-13T15:08:17Z</time>
      </trkpt>
      <trkpt lat="44.79123" lon="0.85553">
        <ele>194</ele>
        <time>2009-01-13T15:08:21Z</time>
      </trkpt>
      <trkpt lat="44.79128" lon="0.85578">
        <ele>193</ele>
        <time>2009-01-13T15:08:25Z</time>
      </trkpt>
      <trkpt lat="44.7913" lon="0.8561">
        <ele>192</ele>
        <time>2009-01-13T15:08:37Z</time>
      </trkpt>
      <trkpt lat="44.79135" lon="0.8564">
        <ele>191</ele>
        <time>2009-01-13T15:08:41Z</time>
      </trkpt>
      <trkpt lat="44.7914" lon="0.85668">
        <ele>191</ele>
        <time>2009-01-13T15:08:45Z</time>
      </trkpt>
      <trkpt lat="44.7914" lon="0.85695">
        <ele>186</ele>
        <time>2009-01-13T15:08:49Z</time>
      </trkpt>
      <trkpt lat="44.79138" lon="0.8573">
        <ele>184</ele>
        <time>2009-01-13T15:08:54Z</time>
      </trkpt>
      <trkpt lat="44.79138" lon="0.8576">
        <ele>180</ele>
        <time>2009-01-13T15:08:58Z</time>
      </trkpt>
      <trkpt lat="44.79135" lon="0.85788">
        <ele>178</ele>
        <time>2009-01-13T15:09:02Z</time>
      </trkpt>
      <trkpt lat="44.79135" lon="0.85815">
        <ele>176</ele>
        <time>2009-01-13T15:09:06Z</time>
      </trkpt>
      <trkpt lat="44.79135" lon="0.85848">
        <ele>173</ele>
        <time>2009-01-13T15:09:11Z</time>
      </trkpt>
      <trkpt lat="44.79138" lon="0.85875">
        <ele>172</ele>
        <time>2009-01-13T15:09:16Z</time>
      </trkpt>
      <trkpt lat="44.79138" lon="0.85903">
        <ele>172</ele>
        <time>2009-01-13T15:09:21Z</time>
      </trkpt>
      <trkpt lat="44.79135" lon="0.85933">
        <ele>174</ele>
        <time>2009-01-13T15:09:28Z</time>
      </trkpt>
      <trkpt lat="44.79138" lon="0.8596">
        <ele>177</ele>
        <time>2009-01-13T15:09:32Z</time>
      </trkpt>
      <trkpt lat="44.79145" lon="0.85988">
        <ele>180</ele>
        <time>2009-01-13T15:09:36Z</time>
      </trkpt>
      <trkpt lat="44.79153" lon="0.86013">
        <ele>184</ele>
        <time>2009-01-13T15:09:41Z</time>
      </trkpt>
      <trkpt lat="44.79155" lon="0.8604">
        <ele>182</ele>
        <time>2009-01-13T15:09:53Z</time>
      </trkpt>
      <trkpt lat="44.79173" lon="0.86048">
        <ele>186</ele>
        <time>2009-01-13T15:09:58Z</time>
      </trkpt>
      <trkpt lat="44.79195" lon="0.86058">
        <ele>186</ele>
        <time>2009-01-13T15:10:01Z</time>
      </trkpt>
      <trkpt lat="44.79218" lon="0.86065">
        <ele>186</ele>
        <time>2009-01-13T15:10:04Z</time>
      </trkpt>
      <trkpt lat="44.79238" lon="0.86073">
        <ele>186</ele>
        <time>2009-01-13T15:10:07Z</time>
      </trkpt>
      <trkpt lat="44.79263" lon="0.8608">
        <ele>188</ele>
        <time>2009-01-13T15:10:10Z</time>
      </trkpt>
      <trkpt lat="44.79288" lon="0.8608">
        <ele>188</ele>
        <time>2009-01-13T15:10:13Z</time>
      </trkpt>
      <trkpt lat="44.7931" lon="0.8607">
        <ele>189</ele>
        <time>2009-01-13T15:10:16Z</time>
      </trkpt>
      <trkpt lat="44.79333" lon="0.86063">
        <ele>187</ele>
        <time>2009-01-13T15:10:19Z</time>
      </trkpt>
      <trkpt lat="44.79353" lon="0.86068">
        <ele>189</ele>
        <time>2009-01-13T15:10:22Z</time>
      </trkpt>
      <trkpt lat="44.79373" lon="0.8608">
        <ele>192</ele>
        <time>2009-01-13T15:10:25Z</time>
      </trkpt>
      <trkpt lat="44.79395" lon="0.86085">
        <ele>195</ele>
        <time>2009-01-13T15:10:28Z</time>
      </trkpt>
      <trkpt lat="44.79415" lon="0.86083">
        <ele>196</ele>
        <time>2009-01-13T15:10:30Z</time>
      </trkpt>
      <trkpt lat="44.7944" lon="0.8608">
        <ele>197</ele>
        <time>2009-01-13T15:10:33Z</time>
      </trkpt>
      <trkpt lat="44.79465" lon="0.8608">
        <ele>198</ele>
        <time>2009-01-13T15:10:36Z</time>
      </trkpt>
      <trkpt lat="44.79488" lon="0.8608">
        <ele>201</ele>
        <time>2009-01-13T15:10:40Z</time>
      </trkpt>
      <trkpt lat="44.79505" lon="0.8609">
        <ele>202</ele>
        <time>2009-01-13T15:10:46Z</time>
      </trkpt>
    </trkseg>
  </trk>
</gpx>